createdAt,value
2023-07-30T00:02:12.830Z,96922.38
2023-07-30T00:05:14.328Z,96926.59
2023-07-30T00:08:15.848Z,96937.81
2023-07-30T00:11:17.563Z,96928.97
2023-07-30T00:14:19.487Z,96940.19
2023-07-30T00:17:20.994Z,96932.13
2023-07-30T00:20:22.683Z,96934.00
2023-07-30T00:23:24.218Z,96942.88
2023-07-30T00:26:27.439Z,96943.91
2023-07-30T00:29:28.945Z,96947.44
2023-07-30T00:32:30.487Z,96941.53
2023-07-30T00:35:32.094Z,96950.16
2023-07-30T00:38:33.639Z,96949.03
2023-07-30T00:41:35.232Z,96963.53
2023-07-30T00:44:36.908Z,96965.13
2023-07-30T00:47:39.665Z,96950.66
2023-07-30T00:50:42.655Z,96951.72
2023-07-30T00:53:44.311Z,96942.06
2023-07-30T00:56:52.741Z,96940.97
2023-07-30T00:59:54.770Z,96937.72
2023-07-30T01:02:57.053Z,96940.91
2023-07-30T01:05:58.822Z,96939.28
2023-07-30T01:09:00.461Z,96930.66
2023-07-30T01:12:03.419Z,96930.66
2023-07-30T01:15:05.702Z,96938.41
2023-07-30T01:18:07.411Z,96948.28
2023-07-30T01:21:08.933Z,96941.88
2023-07-30T01:24:10.598Z,96946.69
2023-07-30T01:27:17.987Z,96945.59
2023-07-30T01:30:26.726Z,96951.81
2023-07-30T01:33:29.378Z,96953.09
2023-07-30T01:36:32.496Z,96948.28
2023-07-30T01:39:36.318Z,96946.13
2023-07-30T01:42:37.872Z,96939.94
2023-07-30T01:45:41.043Z,96941.88
2023-07-30T01:48:42.589Z,96940.75
2023-07-30T01:51:44.148Z,96931.47
2023-07-30T01:54:45.796Z,96930.03
2023-07-30T01:57:47.344Z,96935.63
2023-07-30T02:00:48.924Z,96929.59
2023-07-30T02:03:50.426Z,96930.06
2023-07-30T02:06:52.165Z,96934.16
2023-07-30T02:09:54.099Z,96940.91
2023-07-30T02:12:55.721Z,96938.22
2023-07-30T02:15:57.250Z,96942.50
2023-07-30T02:18:58.809Z,96946.25
2023-07-30T02:22:00.396Z,96946.59
2023-07-30T02:25:03.069Z,96959.44
2023-07-30T02:28:04.931Z,96961.88
2023-07-30T02:31:06.510Z,96976.34
2023-07-30T02:34:08.995Z,96955.34
2023-07-30T02:37:10.475Z,96942.44
2023-07-30T02:40:12.441Z,96945.03
2023-07-30T02:43:14.085Z,96954.69
2023-07-30T02:46:15.792Z,96964.59
2023-07-30T02:49:17.337Z,96958.78
2023-07-30T02:52:18.890Z,96965.75
2023-07-30T02:55:20.439Z,96963.41
2023-07-30T02:58:21.935Z,96958.59
2023-07-30T03:01:23.668Z,96961.56
2023-07-30T03:04:25.374Z,96963.16
2023-07-30T03:07:27.073Z,96965.59
2023-07-30T03:10:28.557Z,96967.72
2023-07-30T03:13:30.116Z,96980.06
2023-07-30T03:16:31.725Z,96970.97
2023-07-30T03:19:33.378Z,96965.50
2023-07-30T03:22:34.899Z,96971.72
2023-07-30T03:25:36.442Z,96957.13
2023-07-30T03:28:40.477Z,96957.31
2023-07-30T03:31:42.609Z,96952.06
2023-07-30T03:34:44.159Z,96951.16
2023-07-30T03:37:45.644Z,96946.50
2023-07-30T03:40:47.155Z,96938.38
2023-07-30T03:43:48.968Z,96942.22
2023-07-30T03:46:50.468Z,96946.44
2023-07-30T03:49:52.073Z,96956.03
2023-07-30T03:52:54.137Z,96950.66
2023-07-30T03:55:55.653Z,96953.81
2023-07-30T03:58:57.404Z,96967.44
2023-07-30T04:01:59.457Z,96961.63
2023-07-30T04:05:00.988Z,96959.97
2023-07-30T04:08:02.473Z,96967.56
2023-07-30T04:11:04.102Z,96968.28
2023-07-30T04:14:08.904Z,96977.34
2023-07-30T04:17:10.454Z,96980.16
2023-07-30T04:20:12.243Z,96982.34
2023-07-30T04:23:13.841Z,96983.16
2023-07-30T04:26:15.955Z,96994.78
2023-07-30T04:29:17.736Z,97001.28
2023-07-30T04:32:19.460Z,96990.72
2023-07-30T04:35:21.037Z,97000.22
2023-07-30T04:38:22.610Z,96999.53
2023-07-30T04:41:24.333Z,96996.31
2023-07-30T04:44:31.006Z,97001.03
2023-07-30T04:47:38.611Z,96996.25
2023-07-30T04:50:43.055Z,97007.06
2023-07-30T04:53:44.618Z,96999.34
2023-07-30T04:56:46.234Z,97007.50
2023-07-30T04:59:47.881Z,96995.63
2023-07-30T05:02:49.566Z,96998.47
2023-07-30T05:05:51.278Z,96998.09
2023-07-30T05:08:52.845Z,96993.97
2023-07-30T05:11:54.396Z,96984.88
2023-07-30T05:14:55.946Z,96996.16
2023-07-30T05:17:57.630Z,96992.81
2023-07-30T05:20:59.402Z,97010.38
2023-07-30T05:24:01.068Z,97005.97
2023-07-30T05:27:02.628Z,97009.94
2023-07-30T05:30:04.470Z,97025.00
2023-07-30T05:33:06.118Z,97015.22
2023-07-30T05:36:07.661Z,97026.28
2023-07-30T05:39:09.200Z,97012.63
2023-07-30T05:42:10.803Z,97021.59
2023-07-30T05:45:13.191Z,97015.81
2023-07-30T05:48:14.733Z,97015.59
2023-07-30T05:51:16.269Z,97027.56
2023-07-30T05:54:18.257Z,97029.09
2023-07-30T05:57:19.730Z,97030.16
2023-07-30T06:00:21.240Z,97041.22
2023-07-30T06:03:22.963Z,97023.16
2023-07-30T06:06:28.360Z,97033.31
2023-07-30T06:09:30.245Z,97036.56
2023-07-30T06:12:31.727Z,97051.66
2023-07-30T06:15:34.160Z,97052.38
2023-07-30T06:18:35.722Z,97055.00
2023-07-30T06:21:37.400Z,97055.78
2023-07-30T06:24:39.239Z,97063.44
2023-07-30T06:27:40.766Z,97066.84
2023-07-30T06:30:42.317Z,97064.22
2023-07-30T06:33:43.818Z,97070.34
2023-07-30T06:36:45.548Z,97067.06
2023-07-30T06:39:47.092Z,97074.41
2023-07-30T06:42:48.576Z,97078.84
2023-07-30T06:45:50.225Z,97083.69
2023-07-30T06:48:51.815Z,97080.47
2023-07-30T06:51:53.373Z,97078.47
2023-07-30T06:54:54.963Z,97077.03
2023-07-30T06:57:56.582Z,97085.16
2023-07-30T07:00:58.234Z,97092.34
2023-07-30T07:03:59.919Z,97081.47
2023-07-30T07:07:04.354Z,97087.22
2023-07-30T07:10:06.457Z,97086.09
2023-07-30T07:13:08.093Z,97078.69
2023-07-30T07:16:09.999Z,97082.91
2023-07-30T07:19:12.272Z,97078.06
2023-07-30T07:22:13.810Z,97090.28
2023-07-30T07:25:15.398Z,97077.47
2023-07-30T07:28:17.672Z,97090.00
2023-07-30T07:31:19.339Z,97084.88
2023-07-30T07:34:21.091Z,97091.69
2023-07-30T07:37:22.598Z,97095.94
2023-07-30T07:40:24.289Z,97100.59
2023-07-30T07:43:26.203Z,97090.38
2023-07-30T07:46:28.647Z,97092.13
2023-07-30T07:49:30.699Z,97103.66
2023-07-30T07:52:32.315Z,97106.34
2023-07-30T07:55:34.194Z,97103.81
2023-07-30T07:58:36.954Z,97103.72
2023-07-30T08:01:38.647Z,97096.22
2023-07-30T08:04:40.714Z,97108.34
2023-07-30T08:07:42.471Z,97107.44
2023-07-30T08:10:46.141Z,97109.41
2023-07-30T08:13:47.720Z,97111.84
2023-07-30T08:16:49.388Z,97118.16
2023-07-30T08:19:51.000Z,97122.50
2023-07-30T08:22:52.636Z,97124.94
2023-07-30T08:25:54.254Z,97118.97
2023-07-30T08:28:55.808Z,97122.47
2023-07-30T08:31:57.390Z,97127.56
2023-07-30T08:34:58.982Z,97134.09
2023-07-30T08:38:00.624Z,97123.50
2023-07-30T08:41:02.221Z,97126.19
2023-07-30T08:44:03.923Z,97118.34
2023-07-30T08:47:05.464Z,97114.34
2023-07-30T08:50:07.286Z,97143.00
2023-07-30T08:53:09.181Z,97134.25
2023-07-30T08:56:11.289Z,97137.44
2023-07-30T08:59:13.671Z,97137.38
2023-07-30T09:02:21.901Z,97144.81
2023-07-30T09:05:24.106Z,97146.75
2023-07-30T09:08:25.882Z,97153.66
2023-07-30T09:11:30.586Z,97144.97
2023-07-30T09:14:32.109Z,97148.41
2023-07-30T09:17:35.329Z,97155.03
2023-07-30T09:20:41.199Z,97157.47
2023-07-30T09:23:47.313Z,97165.00
2023-07-30T09:26:48.897Z,97177.19
2023-07-30T09:29:58.517Z,97174.00
2023-07-30T09:33:00.239Z,97176.59
2023-07-30T09:36:05.510Z,97172.44
2023-07-30T09:39:15.844Z,97168.03
2023-07-30T09:42:17.565Z,97163.28
2023-07-30T09:45:22.524Z,97180.31
2023-07-30T09:48:24.136Z,97168.19
2023-07-30T09:51:26.247Z,97174.09
2023-07-30T09:54:27.839Z,97168.47
2023-07-30T09:57:29.398Z,97163.84
2023-07-30T10:00:31.312Z,97169.25
2023-07-30T10:03:36.003Z,97180.44
2023-07-30T10:07:01.002Z,97172.56
2023-07-30T10:10:03.654Z,97175.78
2023-07-30T10:13:09.131Z,97176.63
2023-07-30T10:16:12.484Z,97166.19
2023-07-30T10:19:16.783Z,97175.97
2023-07-30T10:22:18.271Z,97189.94
2023-07-30T10:25:22.804Z,97182.31
2023-07-30T10:28:31.016Z,97180.75
2023-07-30T10:31:50.234Z,97195.31
2023-07-30T10:34:51.748Z,97196.16
2023-07-30T10:37:53.275Z,97190.50
2023-07-30T10:41:09.127Z,97192.19
2023-07-30T10:44:28.434Z,97181.38
2023-07-30T10:47:36.867Z,97175.72
2023-07-30T10:50:39.917Z,97177.66
2023-07-30T10:53:49.353Z,97176.31
2023-07-30T10:56:51.990Z,97181.16
2023-07-30T10:59:56.034Z,97176.84
2023-07-30T11:03:01.538Z,97180.31
2023-07-30T11:06:04.152Z,97176.53
2023-07-30T11:09:06.803Z,97175.44
2023-07-30T11:12:09.959Z,97193.59
2023-07-30T11:15:11.836Z,97190.63
2023-07-30T11:18:14.181Z,97189.00
2023-07-30T11:21:17.870Z,97172.81
2023-07-30T11:24:19.434Z,97170.25
2023-07-30T11:27:21.050Z,97171.34
2023-07-30T11:30:23.517Z,97173.53
2023-07-30T11:33:25.226Z,97183.84
2023-07-30T11:36:27.129Z,97177.34
2023-07-30T11:39:29.606Z,97211.72
2023-07-30T11:42:32.282Z,97189.56
2023-07-30T11:45:33.846Z,97208.75
2023-07-30T11:48:36.754Z,97194.38
2023-07-30T11:51:38.504Z,97191.16
2023-07-30T11:54:40.270Z,97192.00
2023-07-30T11:57:41.816Z,97177.63
2023-07-30T12:00:44.581Z,97186.66
2023-07-30T12:03:46.813Z,97188.28
2023-07-30T12:06:50.775Z,97186.13
2023-07-30T12:09:52.388Z,97199.50
2023-07-30T12:12:54.549Z,97201.75
2023-07-30T12:15:57.438Z,97187.31
2023-07-30T12:18:58.947Z,97191.53
2023-07-30T12:22:00.400Z,97177.13
2023-07-30T12:25:04.330Z,97183.59
2023-07-30T12:28:06.402Z,97182.44
2023-07-30T12:31:08.049Z,97193.03
2023-07-30T12:34:09.644Z,97181.44
2023-07-30T12:37:11.200Z,97182.97
2023-07-30T12:40:13.161Z,97186.22
2023-07-30T12:43:14.786Z,97197.56
2023-07-30T12:46:16.312Z,97203.13
2023-07-30T12:49:17.853Z,97209.91
2023-07-30T12:52:19.372Z,97194.47
2023-07-30T12:55:20.972Z,97210.75
2023-07-30T12:58:22.591Z,97208.13
2023-07-30T13:01:24.849Z,97206.03
2023-07-30T13:04:29.458Z,97217.22
2023-07-30T13:07:31.368Z,97224.97
2023-07-30T13:10:33.036Z,97215.28
2023-07-30T13:13:34.602Z,97214.34
2023-07-30T13:16:36.211Z,97227.31
2023-07-30T13:19:37.856Z,97223.94
2023-07-30T13:22:39.367Z,97227.13
2023-07-30T13:25:40.868Z,97239.38
2023-07-30T13:28:42.405Z,97243.38
2023-07-30T13:31:43.956Z,97245.78
2023-07-30T13:34:45.468Z,97251.44
2023-07-30T13:37:47.021Z,97242.44
2023-07-30T13:40:48.528Z,97251.31
2023-07-30T13:43:50.068Z,97255.88
2023-07-30T13:46:51.851Z,97265.03
2023-07-30T13:49:55.339Z,97254.38
2023-07-30T13:52:56.902Z,97250.13
2023-07-30T13:55:58.411Z,97243.03
2023-07-30T13:59:00.037Z,97255.63
2023-07-30T14:02:01.587Z,97265.28
2023-07-30T14:05:03.878Z,97271.00
2023-07-30T14:08:05.431Z,97278.06
2023-07-30T14:11:07.032Z,97261.63
2023-07-30T14:14:08.566Z,97269.38
2023-07-30T14:17:10.135Z,97262.22
2023-07-30T14:20:11.801Z,97262.00
2023-07-30T14:23:13.480Z,97269.31
2023-07-30T14:26:15.202Z,97263.06
2023-07-30T14:29:16.963Z,97258.22
2023-07-30T14:32:21.945Z,97269.84
2023-07-30T14:35:23.601Z,97273.22
2023-07-30T14:38:25.194Z,97269.66
2023-07-30T14:41:26.657Z,97286.19
2023-07-30T14:44:28.276Z,97267.16
2023-07-30T14:47:30.130Z,97273.09
2023-07-30T14:50:31.758Z,97268.41
2023-07-30T14:53:33.262Z,97266.81
2023-07-30T14:56:34.809Z,97278.31
2023-07-30T14:59:36.328Z,97280.09
2023-07-30T15:02:37.985Z,97280.84
2023-07-30T15:05:39.627Z,97278.88
2023-07-30T15:08:41.221Z,97280.13
2023-07-30T15:11:42.746Z,97274.41
2023-07-30T15:14:44.294Z,97274.94
2023-07-30T15:17:45.851Z,97273.75
2023-07-30T15:20:48.578Z,97271.66
2023-07-30T15:23:50.105Z,97273.91
2023-07-30T15:26:51.667Z,97266.34
2023-07-30T15:29:53.256Z,97262.63
2023-07-30T15:32:54.799Z,97256.38
2023-07-30T15:35:56.322Z,97271.78
2023-07-30T15:38:58.073Z,97275.16
2023-07-30T15:41:59.597Z,97268.53
2023-07-30T15:45:01.176Z,97274.50
2023-07-30T15:48:03.004Z,97272.94
2023-07-30T15:51:04.743Z,97274.19
2023-07-30T15:54:06.325Z,97270.75
2023-07-30T15:57:12.597Z,97267.91
2023-07-30T16:00:16.270Z,97270.50
2023-07-30T16:03:18.088Z,97263.97
2023-07-30T16:06:25.617Z,97270.50
2023-07-30T16:09:27.155Z,97269.00
2023-07-30T16:12:28.680Z,97268.59
2023-07-30T16:15:30.977Z,97274.72
2023-07-30T16:18:32.483Z,97278.72
2023-07-30T16:21:36.344Z,97271.44
2023-07-30T16:24:37.848Z,97273.22
2023-07-30T16:27:39.722Z,97268.63
2023-07-30T16:30:41.212Z,97272.03
2023-07-30T16:33:42.774Z,97278.03
2023-07-30T16:36:44.375Z,97277.25
2023-07-30T16:39:48.152Z,97270.09
2023-07-30T16:42:49.794Z,97278.28
2023-07-30T16:45:51.330Z,97270.66
2023-07-30T16:48:52.930Z,97276.00
2023-07-30T16:51:54.454Z,97266.13
2023-07-30T16:54:56.037Z,97266.75
2023-07-30T16:57:57.583Z,97270.41
2023-07-30T17:01:05.170Z,97275.56
2023-07-30T17:04:06.758Z,97275.78
2023-07-30T17:07:08.268Z,97282.72
2023-07-30T17:10:10.000Z,97287.59
2023-07-30T17:13:13.369Z,97294.84
2023-07-30T17:16:17.482Z,97288.00
2023-07-30T17:19:19.011Z,97290.72
2023-07-30T17:22:20.555Z,97288.81
2023-07-30T17:25:22.300Z,97294.09
2023-07-30T17:28:24.281Z,97298.41
2023-07-30T17:31:25.984Z,97296.09
2023-07-30T17:34:27.587Z,97302.50
2023-07-30T17:37:29.199Z,97301.75
2023-07-30T17:40:31.198Z,97295.28
2023-07-30T17:43:32.770Z,97296.06
2023-07-30T17:46:35.989Z,97294.19
2023-07-30T17:49:37.659Z,97310.72
2023-07-30T17:52:39.340Z,97309.25
2023-07-30T17:55:42.792Z,97320.63
2023-07-30T17:58:44.350Z,97332.19
2023-07-30T18:01:45.955Z,97329.44
2023-07-30T18:04:47.486Z,97322.75
2023-07-30T18:07:51.247Z,97315.66
2023-07-30T18:10:54.442Z,97320.31
2023-07-30T18:13:55.928Z,97318.97
2023-07-30T18:16:57.415Z,97320.97
2023-07-30T18:19:59.029Z,97329.94
2023-07-30T18:23:01.857Z,97326.44
2023-07-30T18:26:03.379Z,97330.88
2023-07-30T18:29:04.979Z,97330.50
2023-07-30T18:32:07.908Z,97321.75
2023-07-30T18:35:11.621Z,97328.59
2023-07-30T18:38:13.180Z,97323.50
2023-07-30T18:41:14.784Z,97321.56
2023-07-30T18:44:16.409Z,97332.16
2023-07-30T18:47:17.858Z,97319.34
2023-07-30T18:50:19.412Z,97318.94
2023-07-30T18:53:22.940Z,97327.81
2023-07-30T18:56:24.496Z,97331.97
2023-07-30T18:59:25.979Z,97334.06
2023-07-30T19:02:27.585Z,97337.94
2023-07-30T19:05:29.201Z,97343.34
2023-07-30T19:08:30.745Z,97342.16
2023-07-30T19:11:32.297Z,97345.41
2023-07-30T19:14:33.869Z,97344.72
2023-07-30T19:17:35.539Z,97355.13
2023-07-30T19:20:37.246Z,97350.41
2023-07-30T19:23:40.199Z,97368.22
2023-07-30T19:26:41.950Z,97368.09
2023-07-30T19:29:43.544Z,97367.06
2023-07-30T19:32:45.104Z,97370.94
2023-07-30T19:35:51.267Z,97372.50
2023-07-30T19:38:53.578Z,97375.97
2023-07-30T19:41:55.058Z,97375.06
2023-07-30T19:44:56.642Z,97383.50
2023-07-30T19:47:58.645Z,97381.31
2023-07-30T19:51:00.847Z,97381.72
2023-07-30T19:54:02.363Z,97374.13
2023-07-30T19:57:04.237Z,97382.66
2023-07-30T20:00:06.568Z,97383.97
2023-07-30T20:03:11.072Z,97384.25
2023-07-30T20:06:14.599Z,97389.88
2023-07-30T20:09:16.406Z,97390.78
2023-07-30T20:12:17.937Z,97384.47
2023-07-30T20:15:19.386Z,97384.97
2023-07-30T20:18:20.990Z,97390.13
2023-07-30T20:21:23.716Z,97377.66
2023-07-30T20:24:28.372Z,97379.56
2023-07-30T20:27:29.863Z,97380.41
2023-07-30T20:30:32.829Z,97370.34
2023-07-30T20:33:36.456Z,97371.00
2023-07-30T20:36:38.396Z,97378.84
2023-07-30T20:39:40.099Z,97375.75
2023-07-30T20:42:41.620Z,97379.22
2023-07-30T20:45:43.214Z,97372.75
2023-07-30T20:48:45.044Z,97382.03
2023-07-30T20:51:46.624Z,97374.03
2023-07-30T20:54:48.131Z,97379.16
2023-07-30T20:57:49.677Z,97372.78
2023-07-30T21:00:51.182Z,97378.09
2023-07-30T21:03:52.695Z,97378.72
2023-07-30T21:06:54.231Z,97382.03
2023-07-30T21:09:55.887Z,97381.44
2023-07-30T21:12:57.363Z,97379.38
2023-07-30T21:15:58.908Z,97376.31
2023-07-30T21:19:00.535Z,97386.81
2023-07-30T21:22:02.142Z,97375.50
2023-07-30T21:25:03.832Z,97385.34
2023-07-30T21:28:05.449Z,97381.88
2023-07-30T21:31:07.601Z,97378.41
2023-07-30T21:34:09.208Z,97380.06
2023-07-30T21:37:10.953Z,97380.66
2023-07-30T21:40:12.691Z,97387.63
2023-07-30T21:43:14.560Z,97378.22
2023-07-30T21:46:16.074Z,97394.63
2023-07-30T21:49:17.574Z,97390.72
2023-07-30T21:52:31.056Z,97393.81
2023-07-30T21:55:32.609Z,97396.28
2023-07-30T21:58:34.141Z,97394.63
2023-07-30T22:01:35.765Z,97391.09
2023-07-30T22:04:37.352Z,97395.59
2023-07-30T22:07:38.862Z,97401.28
2023-07-30T22:10:44.883Z,97397.41
2023-07-30T22:13:47.160Z,97394.78
2023-07-30T22:16:48.757Z,97393.31
2023-07-30T22:19:50.307Z,97395.81
2023-07-30T22:22:51.836Z,97392.50
2023-07-30T22:25:53.665Z,97402.72
2023-07-30T22:28:55.221Z,97401.25
2023-07-30T22:31:56.849Z,97405.78
2023-07-30T22:34:58.485Z,97403.09
2023-07-30T22:38:00.021Z,97399.81
2023-07-30T22:41:01.567Z,97408.81
2023-07-30T22:44:03.218Z,97414.50
2023-07-30T22:47:04.858Z,97411.66
2023-07-30T22:50:06.941Z,97414.94
2023-07-30T22:53:08.644Z,97416.31
2023-07-30T22:56:10.116Z,97421.06
2023-07-30T22:59:11.606Z,97418.03
2023-07-30T23:02:13.164Z,97417.00
2023-07-30T23:05:14.671Z,97422.16
2023-07-30T23:08:16.674Z,97415.00
2023-07-30T23:11:18.225Z,97405.97
2023-07-30T23:14:21.294Z,97398.19
2023-07-30T23:17:22.846Z,97388.78
2023-07-30T23:20:24.498Z,97376.09
2023-07-30T23:23:26.018Z,97378.31
2023-07-30T23:26:27.534Z,97373.38
2023-07-30T23:29:29.034Z,97372.53
2023-07-30T23:32:30.623Z,97372.53
2023-07-30T23:35:32.148Z,97372.31
2023-07-30T23:38:33.650Z,97377.59
2023-07-30T23:41:35.270Z,97365.94
2023-07-30T23:44:36.749Z,97375.53
2023-07-30T23:47:38.283Z,97369.78
2023-07-30T23:50:44.010Z,97371.81
2023-07-30T23:53:50.803Z,97376.91
2023-07-30T23:56:52.269Z,97383.25
2023-07-30T23:59:53.748Z,97380.16
